Time;durP1;ratioP1;P1;durP2;ratioP2;P2;SDS_P1;SDS_P2;PMS_P1;PMS_P2;Temp;Humidity;BMP_temperature;BMP_pressure;BME280_temperature;BME280_humidity;BME280_pressure;Samples;Min_cycle;Max_cycle;Signal;HPM_P1;HPM_P2
2022/01/02 00:02:45;;;;;;;4.60;3.33;;;;;;;;;;4954209;28;20035;-85
2022/01/02 00:06:00;;;;;;;;;;;;;;;;;;;;;
2022/01/02 00:09:09;;;;;;;7.90;4.22;;;;;;;;;;4941141;28;20130;-85
2022/01/02 00:14:57;;;;;;;5.78;3.47;;;;;;;;;;5059408;23;20066;-86
2022/01/02 00:30:30;;;;;;;5.65;4.03;;;;;;;;;;5064562;22;20062;-84
2022/01/02 00:32:56;;;;;;;8.27;2.92;;;;;;;;;;5381670;23;20043;-85
2022/01/02 00:35:22;;;;;;;8.60;3.47;;;;;;;;;;5015503;28;20042;-85
2022/01/02 00:37:48;;;;;;;3.22;2.85;;;;;;;;;;5000550;28;20007;-83
2022/01/02 00:46:10;;;;;;;8.25;4.15;;;;;;;;;;5933334;22;20101;-84
2022/01/02 01:04:12;;;;;;;13.30;5.50;;;;;;;;;;5330411;22;20058;-86
2022/01/02 01:06:39;;;;;;;12.82;6.45;;;;;;;;;;5012211;28;20016;-85
2022/01/02 01:09:10;;;;;;;10.85;5.82;;;;;;;;;;5012645;23;20039;-85
2022/01/02 01:11:58;;;;;;;12.93;6.13;;;;;;;;;;5018988;28;20049;-84
2022/01/02 01:14:27;;;;;;;10.35;6.30;;;;;;;;;;5067312;23;20050;-86
2022/01/02 01:22:49;;;;;;;11.48;5.82;;;;;;;;;;5512579;22;20061;-86
2022/01/02 01:25:17;;;;;;;12.25;5.75;;;;;;;;;;5019633;28;20045;-87
2022/01/02 01:27:44;;;;;;;10.10;5.55;;;;;;;;;;5019644;28;20006;-87
2022/01/02 01:30:10;;;;;;;16.70;7.15;;;;;;;;;;5019551;28;20022;-85
2022/01/02 01:32:37;;;;;;;13.18;6.35;;;;;;;;;;5019049;28;20014;-85
2022/01/02 01:35:04;;;;;;;10.98;6.53;;;;;;;;;;5004035;28;20042;-86
2022/01/02 01:37:30;;;;;;;12.43;6.78;;;;;;;;;;5003612;28;20106;-86
2022/01/02 01:39:56;;;;;;;11.52;6.35;;;;;;;;;;5019569;28;20078;-86
2022/01/02 01:42:41;;;;;;;13.43;7.00;;;;;;;;;;5017757;28;20027;-86
2022/01/02 01:47:44;;;;;;;15.68;6.05;;;;;;;;;;4998277;28;20034;-86
2022/01/02 01:50:11;;;;;;;15.52;8.00;;;;;;;;;;4998119;28;20026;-86
2022/01/02 01:52:37;;;;;;;16.42;7.38;;;;;;;;;;4998561;28;20030;-85
2022/01/02 01:55:04;;;;;;;15.60;6.10;;;;;;;;;;4998330;28;20037;-86
2022/01/02 01:57:30;;;;;;;15.02;6.40;;;;;;;;;;4996871;28;20409;-85
2022/01/02 01:59:56;;;;;;;15.88;6.88;;;;;;;;;;4996734;28;20076;-86
2022/01/02 02:02:22;;;;;;;15.43;6.07;;;;;;;;;;4998143;28;20478;-85
2022/01/02 02:04:49;;;;;;;12.35;6.32;;;;;;;;;;4997860;28;20082;-86
2022/01/02 02:07:15;;;;;;;10.25;5.93;;;;;;;;;;4997606;28;20498;-86
2022/01/02 02:12:26;;;;;;;14.85;6.18;;;;;;;;;;4996748;28;20096;-86
2022/01/02 02:14:52;;;;;;;9.10;5.18;;;;;;;;;;4997612;28;20036;-85
2022/01/02 02:17:18;;;;;;;10.20;5.18;;;;;;;;;;4994698;28;20024;-86
2022/01/02 02:19:46;;;;;;;11.80;5.28;;;;;;;;;;4997485;28;20030;-86
2022/01/02 02:22:12;;;;;;;9.10;5.13;;;;;;;;;;4995734;28;20026;-86
2022/01/02 02:24:40;;;;;;;9.70;5.70;;;;;;;;;;4982701;28;20031;-86
2022/01/02 02:27:06;;;;;;;8.93;4.65;;;;;;;;;;4976947;28;20541;-86
2022/01/02 02:29:32;;;;;;;11.23;5.60;;;;;;;;;;4975653;28;20113;-86
2022/01/02 02:31:58;;;;;;;9.20;5.05;;;;;;;;;;4976834;28;20041;-85
2022/01/02 02:34:25;;;;;;;7.95;3.90;;;;;;;;;;4979112;28;20039;-85
2022/01/02 02:36:51;;;;;;;9.95;4.90;;;;;;;;;;4975698;28;20031;-86
2022/01/02 02:39:16;;;;;;;11.43;4.68;;;;;;;;;;4976899;28;20403;-86
2022/01/02 02:41:44;;;;;;;9.75;5.22;;;;;;;;;;4975766;28;20031;-86
2022/01/02 02:44:22;;;;;;;8.07;5.22;;;;;;;;;;4987100;28;20048;-85
2022/01/02 02:49:32;;;;;;;5.35;3.28;;;;;;;;;;4998547;28;20053;-86
2022/01/02 02:52:07;;;;;;;5.03;3.03;;;;;;;;;;5002274;28;20483;-85
2022/01/02 02:54:35;;;;;;;3.85;3.08;;;;;;;;;;4984219;28;20030;-86
2022/01/02 02:57:04;;;;;;;6.63;4.50;;;;;;;;;;4997371;28;20516;-85
2022/01/02 02:59:37;;;;;;;5.93;3.30;;;;;;;;;;4991692;28;20027;-86
2022/01/02 03:02:03;;;;;;;6.90;3.85;;;;;;;;;;4983955;28;20027;-85
2022/01/02 03:04:29;;;;;;;4.57;3.40;;;;;;;;;;4997347;28;20239;-86
2022/01/02 03:06:55;;;;;;;8.85;3.90;;;;;;;;;;4994923;28;20031;-85
2022/01/02 03:12:03;;;;;;;;;;;;;;;;;;4982590;28;20034;-85
2022/01/02 03:14:29;;;;;;;6.72;2.85;;;;;;;;;;4997845;28;19912;-86
2022/01/02 03:16:55;;;;;;;5.55;2.92;;;;;;;;;;4979274;28;20031;-86
2022/01/02 03:19:21;;;;;;;5.05;3.63;;;;;;;;;;4980918;28;20061;-86
2022/01/02 03:21:47;;;;;;;8.75;4.00;;;;;;;;;;4982577;28;20035;-85
2022/01/02 03:24:13;;;;;;;8.55;3.38;;;;;;;;;;5001150;28;20030;-86
2022/01/02 03:26:39;;;;;;;8.00;4.10;;;;;;;;;;4996569;28;20029;-85
2022/01/02 03:29:05;;;;;;;12.77;4.28;;;;;;;;;;4979566;28;20443;-86
2022/01/02 03:31:31;;;;;;;5.63;3.58;;;;;;;;;;4980644;28;20030;-86
2022/01/02 03:33:57;;;;;;;7.85;3.45;;;;;;;;;;4978308;28;20031;-86
2022/01/02 03:36:23;;;;;;;8.40;4.55;;;;;;;;;;4981878;28;20027;-85
2022/01/02 03:38:49;;;;;;;6.93;3.70;;;;;;;;;;4999378;28;20598;-86
2022/01/02 03:41:15;;;;;;;6.97;4.03;;;;;;;;;;4999160;28;20026;-86
2022/01/02 03:43:41;;;;;;;6.10;3.90;;;;;;;;;;5000082;28;20023;-85
2022/01/02 03:46:07;;;;;;;7.82;4.15;;;;;;;;;;4998980;28;20045;-86
2022/01/02 03:48:34;;;;;;;8.88;4.15;;;;;;;;;;4984324;28;20035;-86
2022/01/02 03:51:00;;;;;;;6.75;3.90;;;;;;;;;;4981812;28;20031;-86
2022/01/02 03:53:26;;;;;;;6.70;4.50;;;;;;;;;;4996066;28;20054;-86
2022/01/02 03:55:52;;;;;;;5.28;3.85;;;;;;;;;;4988751;28;20030;-86
2022/01/02 03:58:18;;;;;;;4.28;3.40;;;;;;;;;;4979233;28;20035;-85
2022/01/02 04:00:44;;;;;;;9.25;3.97;;;;;;;;;;4979537;28;20082;-85
2022/01/02 04:03:10;;;;;;;6.03;3.90;;;;;;;;;;4979660;28;20390;-86
2022/01/02 04:05:36;;;;;;;9.77;4.40;;;;;;;;;;4988547;28;20100;-86
2022/01/02 04:08:04;;;;;;;8.45;3.88;;;;;;;;;;4997959;28;20029;-86
2022/01/02 04:10:30;;;;;;;9.88;3.53;;;;;;;;;;4998692;28;20502;-87
2022/01/02 04:12:56;;;;;;;8.13;3.33;;;;;;;;;;4997645;28;20478;-86
2022/01/02 04:15:22;;;;;;;5.93;3.35;;;;;;;;;;4990619;28;20446;-86
2022/01/02 04:17:48;;;;;;;5.38;2.92;;;;;;;;;;4977233;28;20034;-86
2022/01/02 04:20:15;;;;;;;9.77;3.28;;;;;;;;;;4976951;28;20023;-86
2022/01/02 04:22:42;;;;;;;11.48;3.45;;;;;;;;;;4978416;28;20045;-87
2022/01/02 04:25:08;;;;;;;8.43;3.45;;;;;;;;;;4996946;28;20030;-86
2022/01/02 04:27:35;;;;;;;7.20;2.97;;;;;;;;;;4997156;28;20058;-85
2022/01/02 04:30:01;;;;;;;5.63;2.85;;;;;;;;;;4997811;28;20472;-85
2022/01/02 04:32:27;;;;;;;6.75;3.00;;;;;;;;;;4997120;28;20180;-86
2022/01/02 04:34:53;;;;;;;5.70;3.30;;;;;;;;;;4982864;28;20031;-84
2022/01/02 04:37:22;;;;;;;4.13;2.95;;;;;;;;;;4986177;28;20105;-86
2022/01/02 04:39:48;;;;;;;5.35;3.28;;;;;;;;;;4978800;28;20046;-85
2022/01/02 04:42:14;;;;;;;7.38;3.20;;;;;;;;;;4984527;28;20040;-84
2022/01/02 04:44:40;;;;;;;6.10;2.78;;;;;;;;;;4998467;28;20117;-84
2022/01/02 04:47:06;;;;;;;5.60;3.10;;;;;;;;;;4996347;28;20057;-85
2022/01/02 04:49:32;;;;;;;4.10;2.75;;;;;;;;;;4998833;28;20027;-85
2022/01/02 04:51:58;;;;;;;5.50;3.47;;;;;;;;;;5005003;28;20023;-85
2022/01/02 04:54:24;;;;;;;7.82;3.15;;;;;;;;;;4976325;28;20034;-84
2022/01/02 04:56:50;;;;;;;5.30;3.20;;;;;;;;;;4975335;28;20511;-84
2022/01/02 04:59:17;;;;;;;8.95;2.90;;;;;;;;;;4978830;28;20498;-85
2022/01/02 05:01:43;;;;;;;4.45;2.58;;;;;;;;;;4977543;28;20113;-87
2022/01/02 05:04:09;;;;;;;6.00;2.60;;;;;;;;;;4977637;28;20034;-87
2022/01/02 05:06:35;;;;;;;4.75;3.00;;;;;;;;;;4976435;28;20031;-86
2022/01/02 05:09:01;;;;;;;4.50;2.53;;;;;;;;;;4977327;28;20386;-86
2022/01/02 05:11:27;;;;;;;6.22;2.70;;;;;;;;;;4976534;28;20062;-86
2022/01/02 05:13:53;;;;;;;3.78;2.80;;;;;;;;;;4978434;28;20026;-85
2022/01/02 05:16:19;;;;;;;6.10;2.90;;;;;;;;;;4977897;28;20113;-86
2022/01/02 05:18:45;;;;;;;4.65;2.75;;;;;;;;;;4977254;28;20030;-86
2022/01/02 05:21:11;;;;;;;4.68;2.45;;;;;;;;;;4985350;28;20033;-86
2022/01/02 05:23:37;;;;;;;4.60;2.63;;;;;;;;;;4996048;28;20034;-86
2022/01/02 05:26:04;;;;;;;6.45;3.65;;;;;;;;;;4995723;28;20041;-86
2022/01/02 05:28:30;;;;;;;6.25;3.10;;;;;;;;;;4996546;28;20034;-86
2022/01/02 05:30:56;;;;;;;5.78;2.78;;;;;;;;;;4989542;28;20115;-86
2022/01/02 05:33:22;;;;;;;5.70;3.20;;;;;;;;;;4977971;28;20031;-85
2022/01/02 05:35:48;;;;;;;4.15;2.58;;;;;;;;;;4980479;28;20010;-84
2022/01/02 05:38:15;;;;;;;3.10;2.60;;;;;;;;;;4999252;28;20069;-84
2022/01/02 05:40:42;;;;;;;4.47;2.78;;;;;;;;;;4998728;28;20046;-86
2022/01/02 05:43:08;;;;;;;3.35;2.70;;;;;;;;;;4983573;28;20054;-86
2022/01/02 05:45:34;;;;;;;4.20;2.80;;;;;;;;;;4979960;28;20034;-87
2022/01/02 05:48:02;;;;;;;4.82;2.60;;;;;;;;;;4995383;28;20084;-86
2022/01/02 05:50:28;;;;;;;4.32;2.72;;;;;;;;;;4996662;28;20080;-85
2022/01/02 05:52:54;;;;;;;4.78;2.83;;;;;;;;;;4997388;28;20033;-86
2022/01/02 05:55:20;;;;;;;10.95;3.60;;;;;;;;;;4997393;28;20061;-84
2022/01/02 05:57:46;;;;;;;4.57;2.80;;;;;;;;;;4995309;28;20050;-86
2022/01/02 06:00:13;;;;;;;5.60;3.53;;;;;;;;;;4983780;28;20026;-87
2022/01/02 06:02:38;;;;;;;5.05;2.45;;;;;;;;;;4979090;28;20023;-87
2022/01/02 06:05:06;;;;;;;6.07;2.80;;;;;;;;;;4976434;28;20126;-84
2022/01/02 06:07:32;;;;;;;3.15;2.50;;;;;;;;;;4988289;28;20038;-86
2022/01/02 06:09:58;;;;;;;8.07;2.90;;;;;;;;;;4997651;28;20486;-85
2022/01/02 06:12:24;;;;;;;6.05;3.33;;;;;;;;;;4996537;28;20026;-85
2022/01/02 06:14:50;;;;;;;4.35;2.85;;;;;;;;;;4995058;28;20053;-85
2022/01/02 06:17:16;;;;;;;7.15;2.97;;;;;;;;;;4987151;28;20328;-85
2022/01/02 06:19:42;;;;;;;5.47;3.08;;;;;;;;;;4996982;28;20073;-85
2022/01/02 06:22:08;;;;;;;4.78;2.45;;;;;;;;;;4981673;28;20045;-84
2022/01/02 06:24:34;;;;;;;5.78;2.85;;;;;;;;;;4977036;28;20023;-85
2022/01/02 06:27:00;;;;;;;6.80;2.78;;;;;;;;;;4993877;28;20094;-85
2022/01/02 06:29:26;;;;;;;4.05;2.55;;;;;;;;;;4997627;28;20752;-86
2022/01/02 06:31:53;;;;;;;3.90;2.78;;;;;;;;;;4998762;28;20113;-86
2022/01/02 06:34:19;;;;;;;4.57;2.70;;;;;;;;;;4995765;28;20026;-85
2022/01/02 06:36:45;;;;;;;7.80;2.95;;;;;;;;;;4983087;28;20035;-86
2022/01/02 06:39:11;;;;;;;5.03;2.97;;;;;;;;;;4978095;28;20115;-86
2022/01/02 06:41:37;;;;;;;5.55;2.83;;;;;;;;;;4976972;28;20058;-86
2022/01/02 06:44:03;;;;;;;5.95;3.00;;;;;;;;;;4980753;28;20068;-86
2022/01/02 06:46:29;;;;;;;7.00;2.80;;;;;;;;;;4998324;28;20053;-85
2022/01/02 06:48:55;;;;;;;7.32;3.15;;;;;;;;;;5000993;28;20066;-86
2022/01/02 06:51:21;;;;;;;4.80;2.90;;;;;;;;;;5005022;28;20027;-86
2022/01/02 06:53:47;;;;;;;5.30;3.08;;;;;;;;;;5003878;28;20065;-86
2022/01/02 06:56:13;;;;;;;6.45;3.17;;;;;;;;;;4995490;28;20030;-85
2022/01/02 06:58:40;;;;;;;6.38;3.50;;;;;;;;;;4987197;28;20047;-86
2022/01/02 07:01:07;;;;;;;4.88;3.45;;;;;;;;;;4975848;28;20026;-86
2022/01/02 07:03:33;;;;;;;5.50;3.00;;;;;;;;;;4976874;28;20427;-85
2022/01/02 07:06:00;;;;;;;8.05;3.08;;;;;;;;;;4974722;28;20647;-85
2022/01/02 07:08:27;;;;;;;7.03;4.05;;;;;;;;;;4976410;28;20090;-86
2022/01/02 07:10:54;;;;;;;8.45;3.95;;;;;;;;;;4981869;28;20073;-86
2022/01/02 07:13:20;;;;;;;9.00;3.88;;;;;;;;;;4995561;28;20117;-86
2022/01/02 07:15:46;;;;;;;7.00;3.97;;;;;;;;;;4987951;28;20507;-86
2022/01/02 07:18:12;;;;;;;9.90;4.28;;;;;;;;;;4975234;28;20034;-86
2022/01/02 07:20:38;;;;;;;6.95;3.83;;;;;;;;;;4978598;28;20027;-86
2022/01/02 07:23:04;;;;;;;7.53;4.65;;;;;;;;;;4997116;28;20052;-86
2022/01/02 07:25:30;;;;;;;10.07;3.97;;;;;;;;;;4995806;28;20030;-86
2022/01/02 07:27:56;;;;;;;7.72;4.10;;;;;;;;;;4996712;28;20027;-86
2022/01/02 07:30:23;;;;;;;6.85;3.92;;;;;;;;;;4995140;28;20057;-86
2022/01/02 07:32:49;;;;;;;6.75;4.35;;;;;;;;;;4978282;28;20023;-85
2022/01/02 07:35:15;;;;;;;6.50;4.30;;;;;;;;;;4986115;28;20054;-86
2022/01/02 07:37:41;;;;;;;7.35;4.47;;;;;;;;;;4988270;28;20046;-86
2022/01/02 07:40:08;;;;;;;6.63;3.65;;;;;;;;;;4987922;28;20035;-86
2022/01/02 07:42:34;;;;;;;8.90;4.03;;;;;;;;;;5011364;28;20034;-86
2022/01/02 07:45:00;;;;;;;6.30;3.92;;;;;;;;;;5003412;28;20065;-86
2022/01/02 07:47:26;;;;;;;5.40;3.50;;;;;;;;;;4999895;28;20027;-85
2022/01/02 07:49:52;;;;;;;5.88;4.00;;;;;;;;;;4988871;28;20072;-85
2022/01/02 07:52:18;;;;;;;12.60;4.78;;;;;;;;;;4980313;28;20053;-86
2022/01/02 07:54:44;;;;;;;6.78;4.53;;;;;;;;;;4983238;28;20430;-85
2022/01/02 07:57:10;;;;;;;5.82;3.97;;;;;;;;;;4994042;28;20027;-86
2022/01/02 07:59:36;;;;;;;8.55;4.10;;;;;;;;;;4985441;28;20019;-85
2022/01/02 08:02:02;;;;;;;6.80;3.83;;;;;;;;;;4989997;28;20674;-85
2022/01/02 08:04:28;;;;;;;7.95;4.35;;;;;;;;;;4986595;28;20038;-84
2022/01/02 08:06:54;;;;;;;7.47;4.22;;;;;;;;;;4987656;28;20114;-84
2022/01/02 08:09:20;;;;;;;10.10;3.95;;;;;;;;;;4997610;28;20049;-85
2022/01/02 08:11:46;;;;;;;6.35;4.07;;;;;;;;;;4998698;28;20031;-85
2022/01/02 08:14:12;;;;;;;10.07;4.82;;;;;;;;;;4999067;28;20057;-85
2022/01/02 08:16:38;;;;;;;7.28;3.78;;;;;;;;;;4982253;28;20430;-85
2022/01/02 08:19:06;;;;;;;7.13;3.92;;;;;;;;;;4980810;28;20030;-86
2022/01/02 08:21:32;;;;;;;6.20;3.65;;;;;;;;;;4998826;28;20386;-87
2022/01/02 08:23:58;;;;;;;7.18;3.83;;;;;;;;;;4997610;28;20034;-85
2022/01/02 08:26:24;;;;;;;7.60;3.53;;;;;;;;;;4999585;28;20078;-84
2022/01/02 08:28:51;;;;;;;5.72;3.45;;;;;;;;;;5000253;28;20446;-86
2022/01/02 08:31:17;;;;;;;6.95;4.00;;;;;;;;;;4980381;28;20030;-86
2022/01/02 08:33:43;;;;;;;4.85;3.45;;;;;;;;;;4979423;28;20058;-88
2022/01/02 08:36:09;;;;;;;5.80;3.58;;;;;;;;;;4977662;28;20027;-87
2022/01/02 08:38:35;;;;;;;7.47;3.53;;;;;;;;;;4977709;28;20041;-88
2022/01/02 08:41:01;;;;;;;5.18;3.20;;;;;;;;;;4993455;28;20406;-87
2022/01/02 08:43:27;;;;;;;5.75;3.30;;;;;;;;;;4996196;28;20180;-87
2022/01/02 08:45:53;;;;;;;5.72;3.10;;;;;;;;;;4996270;28;20022;-90
2022/01/02 08:48:19;;;;;;;6.40;3.50;;;;;;;;;;4995787;28;20026;-85
2022/01/02 08:50:45;;;;;;;6.75;3.70;;;;;;;;;;5002765;28;20014;-87
2022/01/02 08:53:11;;;;;;;7.47;3.70;;;;;;;;;;4996054;28;20062;-85
2022/01/02 08:55:38;;;;;;;8.40;3.30;;;;;;;;;;4978605;28;20030;-86
2022/01/02 08:58:04;;;;;;;5.60;3.53;;;;;;;;;;4976464;28;20019;-86
2022/01/02 09:00:32;;;;;;;6.68;2.88;;;;;;;;;;4976168;28;20082;-86
2022/01/02 09:02:58;;;;;;;5.03;3.28;;;;;;;;;;4976121;28;20042;-86
2022/01/02 09:05:26;;;;;;;5.43;3.17;;;;;;;;;;4977667;28;20041;-88
2022/01/02 09:07:52;;;;;;;8.70;3.50;;;;;;;;;;4977914;28;20023;-87
2022/01/02 09:10:19;;;;;;;4.18;2.65;;;;;;;;;;4977136;28;20414;-85
2022/01/02 09:12:45;;;;;;;3.95;2.80;;;;;;;;;;4977311;28;20030;-86
2022/01/02 09:15:11;;;;;;;5.32;3.42;;;;;;;;;;4977734;28;20498;-87
2022/01/02 09:17:37;;;;;;;4.80;3.15;;;;;;;;;;4976780;28;20031;-88
2022/01/02 09:20:04;;;;;;;4.90;2.90;;;;;;;;;;4977242;28;20026;-87
2022/01/02 09:22:30;;;;;;;5.78;3.40;;;;;;;;;;4981308;28;20034;-87
2022/01/02 09:24:57;;;;;;;6.18;3.10;;;;;;;;;;4979659;28;20114;-87
2022/01/02 09:27:23;;;;;;;5.32;2.92;;;;;;;;;;4977601;28;20023;-88
2022/01/02 09:44:11;;;;;;;;;;;;;;;;;;;;;
2022/01/02 09:46:38;;;;;;;5.25;3.03;;;;;;;;;;4974243;28;20031;-85
2022/01/02 09:49:21;;;;;;;3.85;2.67;;;;;;;;;;4979264;28;20039;-88
2022/01/02 10:07:47;;;;;;;9.90;3.78;;;;;;;;;;4998606;22;20202;-85
2022/01/02 10:10:13;;;;;;;6.32;3.53;;;;;;;;;;4989959;28;20027;-85
2022/01/02 10:12:42;;;;;;;7.50;3.97;;;;;;;;;;4958589;28;20082;-87
2022/01/02 10:15:28;;;;;;;9.45;5.13;;;;;;;;;;4958436;28;20023;-88
2022/01/02 10:18:04;;;;;;;13.77;6.97;;;;;;;;;;4958253;28;20042;-85
2022/01/02 10:20:33;;;;;;;15.88;6.63;;;;;;;;;;4975050;28;20041;-85
2022/01/02 10:23:20;;;;;;;13.02;5.85;;;;;;;;;;4975868;28;20038;-84
2022/01/02 10:25:52;;;;;;;19.92;7.40;;;;;;;;;;4978671;28;20356;-85
2022/01/02 10:28:22;;;;;;;13.05;5.60;;;;;;;;;;4976764;28;20030;-86
2022/01/02 10:30:49;;;;;;;11.18;3.42;;;;;;;;;;4971910;28;20078;-89
2022/01/02 10:33:15;;;;;;;6.35;3.42;;;;;;;;;;4955664;28;20054;-88
2022/01/02 10:35:41;;;;;;;8.35;3.97;;;;;;;;;;4978859;28;20023;-87
2022/01/02 10:41:14;;;;;;;11.27;2.90;;;;;;;;;;4985497;28;20097;-87
2022/01/02 10:43:44;;;;;;;4.03;2.85;;;;;;;;;;4976380;28;20023;-88
2022/01/02 10:46:13;;;;;;;3.92;2.80;;;;;;;;;;4976754;28;20042;-87
2022/01/02 10:48:40;;;;;;;8.90;3.40;;;;;;;;;;4976552;28;20086;-87
2022/01/02 10:51:09;;;;;;;4.88;2.90;;;;;;;;;;4986552;28;20045;-87
2022/01/02 10:53:51;;;;;;;8.50;3.03;;;;;;;;;;4975934;28;20050;-88
2022/01/02 10:56:17;;;;;;;5.38;3.00;;;;;;;;;;4976137;28;20045;-88
2022/01/02 10:58:45;;;;;;;4.47;2.88;;;;;;;;;;4976732;28;20036;-88
2022/01/02 11:01:11;;;;;;;9.35;5.03;;;;;;;;;;4976799;28;20063;-88
2022/01/02 11:03:37;;;;;;;3.78;2.38;;;;;;;;;;4976503;28;20102;-88
2022/01/02 11:09:56;;;;;;;3.97;2.72;;;;;;;;;;4972409;28;20046;-88
2022/01/02 11:12:29;;;;;;;6.28;2.00;;;;;;;;;;4985875;28;20439;-88
2022/01/02 11:18:00;;;;;;;5.07;3.00;;;;;;;;;;4988551;28;20038;-89
2022/01/02 11:20:29;;;;;;;3.95;2.55;;;;;;;;;;4988077;28;20054;-87
2022/01/02 11:26:06;;;;;;;7.40;2.95;;;;;;;;;;4991105;28;20046;-90
2022/01/02 11:28:51;;;;;;;3.85;2.55;;;;;;;;;;4988781;28;20050;-90
2022/01/02 11:34:36;;;;;;;5.72;2.85;;;;;;;;;;5000306;28;20050;-89
2022/01/02 11:37:22;;;;;;;5.30;2.67;;;;;;;;;;4988043;28;20037;-87
2022/01/02 11:40:04;;;;;;;7.00;3.47;;;;;;;;;;4966958;29;20110;-88
2022/01/02 11:42:42;;;;;;;4.85;2.88;;;;;;;;;;4969389;28;20071;-87
2022/01/02 11:59:46;;;;;;;7.15;3.78;;;;;;;;;;4984697;28;20120;-88
2022/01/02 12:28:36;;;;;;;6.35;3.03;;;;;;;;;;4983780;28;20011;-87
2022/01/02 12:34:35;;;;;;;6.22;2.63;;;;;;;;;;4951814;29;20034;-86
2022/01/02 12:37:03;;;;;;;3.60;2.60;;;;;;;;;;4947487;28;20043;-83
2022/01/02 12:39:37;;;;;;;5.68;2.92;;;;;;;;;;4978214;28;20406;-84
2022/01/02 12:42:12;;;;;;;4.75;2.58;;;;;;;;;;4977056;28;20118;-84
2022/01/02 12:44:45;;;;;;;5.63;2.80;;;;;;;;;;4977409;28;20023;-84
2022/01/02 12:47:24;;;;;;;6.85;3.38;;;;;;;;;;4977258;28;20069;-84
2022/01/02 12:50:33;;;;;;;8.35;3.20;;;;;;;;;;4991537;28;20129;-84
2022/01/02 12:53:09;;;;;;;6.18;3.22;;;;;;;;;;4977838;28;20494;-84
2022/01/02 12:55:38;;;;;;;5.88;3.15;;;;;;;;;;4978645;28;20105;-84
2022/01/02 12:58:11;;;;;;;6.72;3.63;;;;;;;;;;4975962;28;20031;-85
2022/01/02 13:00:48;;;;;;;5.60;2.47;;;;;;;;;;4980084;28;20045;-86
2022/01/02 13:03:17;;;;;;;6.95;3.20;;;;;;;;;;4978788;28;20034;-86
2022/01/02 13:05:52;;;;;;;5.38;2.55;;;;;;;;;;4978090;28;20018;-86
2022/01/02 13:08:25;;;;;;;6.53;2.90;;;;;;;;;;4963246;28;20122;-85
2022/01/02 13:10:52;;;;;;;6.70;2.97;;;;;;;;;;4956457;28;20099;-85
2022/01/02 13:13:31;;;;;;;8.15;3.15;;;;;;;;;;4960253;29;20038;-86
2022/01/02 13:16:07;;;;;;;7.18;2.65;;;;;;;;;;4968474;28;20038;-87
2022/01/02 13:19:09;;;;;;;6.93;3.15;;;;;;;;;;4978096;28;20419;-85
2022/01/02 13:27:18;;;;;;;5.75;3.33;;;;;;;;;;4977335;28;20103;-85
2022/01/02 13:29:54;;;;;;;7.20;3.53;;;;;;;;;;4980027;28;20122;-84
2022/01/02 13:32:20;;;;;;;14.57;4.30;;;;;;;;;;4977404;28;20483;-85
2022/01/02 13:34:57;;;;;;;10.20;3.75;;;;;;;;;;4972073;28;20047;-85
2022/01/02 13:37:30;;;;;;;4.97;3.28;;;;;;;;;;4969459;28;20054;-84
2022/01/02 13:39:55;;;;;;;8.65;3.85;;;;;;;;;;4965692;28;20031;-84
2022/01/02 13:42:34;;;;;;;7.57;3.90;;;;;;;;;;4967486;28;20181;-85
2022/01/02 13:45:07;;;;;;;11.60;6.07;;;;;;;;;;4968570;28;20023;-85
2022/01/02 13:47:35;;;;;;;7.85;4.75;;;;;;;;;;4970561;28;20399;-86
2022/01/02 13:50:02;;;;;;;7.93;4.45;;;;;;;;;;4970837;28;20015;-85
2022/01/02 13:52:48;;;;;;;9.02;4.18;;;;;;;;;;4968268;28;20066;-85
2022/01/02 13:55:14;;;;;;;10.10;3.65;;;;;;;;;;4972513;28;20442;-86
2022/01/02 13:57:40;;;;;;;9.18;4.10;;;;;;;;;;4975630;28;20031;-85
2022/01/02 14:00:18;;;;;;;8.00;4.57;;;;;;;;;;4967259;28;20396;-87
2022/01/02 14:02:51;;;;;;;7.53;3.80;;;;;;;;;;4962385;28;20027;-86
2022/01/02 14:05:17;;;;;;;9.73;4.40;;;;;;;;;;4963340;28;20030;-83
2022/01/02 14:20:06;;;;;;;7.18;3.72;;;;;;;;;;4949993;29;20102;-88
2022/01/02 14:22:35;;;;;;;6.05;3.97;;;;;;;;;;4948679;28;20070;-86
2022/01/02 14:25:05;;;;;;;6.22;3.92;;;;;;;;;;4952746;29;20111;-86
2022/01/02 14:27:31;;;;;;;8.57;3.78;;;;;;;;;;4922730;29;20048;-85
2022/01/02 14:30:16;;;;;;;6.30;4.10;;;;;;;;;;4937751;29;20039;-86
2022/01/02 14:33:04;;;;;;;11.20;4.03;;;;;;;;;;4935965;29;20087;-86
2022/01/02 14:39:10;;;;;;;7.90;3.97;;;;;;;;;;4937277;29;20050;-85
2022/01/02 14:41:37;;;;;;;6.50;3.38;;;;;;;;;;4937176;29;20461;-85
2022/01/02 14:56:47;;;;;;;10.15;3.00;;;;;;;;;;4922480;29;20043;-85
2022/01/02 14:59:13;;;;;;;10.15;3.75;;;;;;;;;;4942556;29;20444;-85
2022/01/02 15:12:47;;;;;;;5.25;3.38;;;;;;;;;;4940479;29;20477;-85
2022/01/02 15:15:14;;;;;;;7.85;4.25;;;;;;;;;;4993561;28;20044;-85
2022/01/02 15:53:14;;;;;;;7.15;3.47;;;;;;;;;;5074469;23;20046;-84
2022/01/02 15:59:11;;;;;;;12.40;4.30;;;;;;;;;;4928928;29;20055;-85
2022/01/02 16:02:45;;;;;;;9.35;3.15;;;;;;;;;;4998982;28;20043;-84
2022/01/02 16:16:10;;;;;;;8.65;3.47;;;;;;;;;;6054487;23;21246;-84
2022/01/02 16:18:36;;;;;;;6.55;3.60;;;;;;;;;;5016240;28;20038;-86
2022/01/02 16:35:51;;;;;;;8.02;3.72;;;;;;;;;;5019687;28;20533;-85
2022/01/02 16:38:17;;;;;;;7.40;4.55;;;;;;;;;;5029090;28;20453;-86
2022/01/02 16:40:45;;;;;;;5.93;3.15;;;;;;;;;;5038881;28;20025;-88
2022/01/02 16:43:11;;;;;;;6.45;3.75;;;;;;;;;;5038832;28;20025;-86
2022/01/02 16:45:37;;;;;;;5.30;3.22;;;;;;;;;;5039278;28;20025;-88
2022/01/02 16:48:03;;;;;;;9.23;3.75;;;;;;;;;;5049032;28;20036;-86
2022/01/02 16:50:29;;;;;;;6.53;3.50;;;;;;;;;;5036446;28;20026;-86
2022/01/02 16:52:55;;;;;;;8.43;4.35;;;;;;;;;;5036584;28;20052;-84
2022/01/02 16:55:23;;;;;;;6.78;3.47;;;;;;;;;;5035869;28;20060;-85
2022/01/02 16:57:49;;;;;;;9.07;3.88;;;;;;;;;;5019494;28;20029;-85
2022/01/02 17:00:15;;;;;;;6.75;3.53;;;;;;;;;;5029012;28;20026;-86
2022/01/02 17:02:45;;;;;;;7.40;3.50;;;;;;;;;;5036141;28;20107;-86
2022/01/02 17:05:11;;;;;;;9.90;4.07;;;;;;;;;;5018119;28;20022;-86
2022/01/02 17:07:37;;;;;;;9.40;4.55;;;;;;;;;;5036508;28;20029;-85
2022/01/02 17:10:04;;;;;;;8.57;4.03;;;;;;;;;;5019035;28;20535;-85
2022/01/02 17:12:30;;;;;;;7.47;4.03;;;;;;;;;;5018769;28;20037;-86
2022/01/02 17:14:56;;;;;;;8.18;3.25;;;;;;;;;;5018575;28;20031;-85
2022/01/02 17:17:22;;;;;;;8.00;3.33;;;;;;;;;;5018445;28;20472;-85
2022/01/02 17:19:49;;;;;;;8.07;3.58;;;;;;;;;;5038330;28;20036;-86
2022/01/02 17:22:17;;;;;;;6.65;3.38;;;;;;;;;;5037242;28;20393;-87
2022/01/02 17:24:43;;;;;;;9.10;3.17;;;;;;;;;;5035422;28;20032;-85
2022/01/02 17:27:11;;;;;;;7.43;3.70;;;;;;;;;;5019819;28;20385;-85
2022/01/02 17:29:44;;;;;;;8.93;4.25;;;;;;;;;;5025321;28;20109;-88
2022/01/02 17:32:15;;;;;;;9.55;3.78;;;;;;;;;;5013658;28;20103;-87
2022/01/02 17:35:03;;;;;;;12.57;3.83;;;;;;;;;;5035597;28;20037;-86
2022/01/02 17:40:05;;;;;;;6.40;3.58;;;;;;;;;;5136528;22;20044;-87
2022/01/02 17:42:31;;;;;;;10.68;3.72;;;;;;;;;;5037466;28;20025;-87
2022/01/02 17:44:57;;;;;;;9.73;3.20;;;;;;;;;;5006625;28;20406;-86
2022/01/02 17:47:23;;;;;;;7.13;3.25;;;;;;;;;;4980637;28;20047;-86
2022/01/02 17:49:49;;;;;;;10.32;4.22;;;;;;;;;;4982681;28;20073;-85
2022/01/02 17:52:15;;;;;;;8.35;3.35;;;;;;;;;;5003616;28;20029;-86
2022/01/02 17:58:10;;;;;;;6.47;3.67;;;;;;;;;;4903864;29;20087;-84
2022/01/02 18:00:37;;;;;;;5.78;3.05;;;;;;;;;;4931952;28;20072;-86
2022/01/02 18:03:03;;;;;;;9.63;3.70;;;;;;;;;;5010446;28;20057;-87
2022/01/02 18:05:29;;;;;;;6.20;3.20;;;;;;;;;;5021325;28;20038;-86
2022/01/02 18:07:55;;;;;;;7.28;3.20;;;;;;;;;;5021127;28;20114;-85
2022/01/02 18:10:21;;;;;;;10.25;4.00;;;;;;;;;;5013462;28;20033;-86
2022/01/02 18:12:47;;;;;;;6.50;2.80;;;;;;;;;;5003194;28;20137;-85
2022/01/02 18:15:17;;;;;;;8.45;3.63;;;;;;;;;;4997942;28;20694;-85
2022/01/02 18:17:49;;;;;;;7.63;3.15;;;;;;;;;;4999083;28;20034;-86
2022/01/02 18:20:17;;;;;;;6.70;3.15;;;;;;;;;;5008238;28;20098;-86
2022/01/02 18:22:43;;;;;;;6.70;3.10;;;;;;;;;;5013828;28;20118;-87
2022/01/02 18:39:03;;;;;;;12.40;3.50;;;;;;;;;;5201621;23;20077;-85
2022/01/02 18:41:38;;;;;;;7.32;2.92;;;;;;;;;;5023593;23;20062;-85
2022/01/02 18:50:29;;;;;;;10.57;2.70;;;;;;;;;;5982240;23;20044;-85
2022/01/02 18:53:01;;;;;;;7.43;2.55;;;;;;;;;;4995371;28;20038;-86
2022/01/02 18:56:35;;;;;;;;;;;;;;;;;;;;;
2022/01/02 18:58:33;;;;;;;7.20;2.95;;;;;;;;;;4986166;28;20074;-87
2022/01/02 19:00:59;;;;;;;5.75;2.40;;;;;;;;;;4986277;28;20042;-82
2022/01/02 19:03:47;;;;;;;4.90;2.95;;;;;;;;;;4980706;28;20077;-84
2022/01/02 19:06:13;;;;;;;7.38;2.70;;;;;;;;;;4962398;28;20678;-84
2022/01/02 19:08:39;;;;;;;8.65;2.58;;;;;;;;;;4979835;28;20034;-83
2022/01/02 19:11:28;;;;;;;7.60;2.53;;;;;;;;;;4964423;28;20034;-86
2022/01/02 19:20:06;;;;;;;6.47;2.65;;;;;;;;;;4958445;28;20564;-85
2022/01/02 19:22:34;;;;;;;10.35;3.05;;;;;;;;;;4977645;28;20038;-86
2022/01/02 19:28:04;;;;;;;9.25;2.85;;;;;;;;;;4984820;28;20045;-85
2022/01/02 19:30:33;;;;;;;8.43;2.15;;;;;;;;;;4996894;28;20030;-86
2022/01/02 19:33:03;;;;;;;8.68;3.20;;;;;;;;;;4979163;28;20553;-84
2022/01/02 19:35:29;;;;;;;9.73;2.38;;;;;;;;;;4984632;28;20018;-88
2022/01/02 19:51:21;;;;;;;4.90;2.10;;;;;;;;;;4994673;28;20118;-85
2022/01/02 19:53:47;;;;;;;6.80;2.38;;;;;;;;;;4981048;28;20034;-86
2022/01/02 19:56:14;;;;;;;4.78;2.22;;;;;;;;;;5000212;28;20038;-85
2022/01/02 19:59:15;;;;;;;12.13;2.92;;;;;;;;;;5000935;28;20027;-85